Time;durP1;ratioP1;P1;durP2;ratioP2;P2;SDS_P1;SDS_P2;PMS_P1;PMS_P2;Temp;Humidity;BMP_temperature;BMP_pressure;BME280_temperature;BME280_humidity;BME280_pressure;Samples;Min_cycle;Max_cycle;Signal;HPM_P1;HPM_P2
2023/01/26 00:01:28;;;;;;;164.38;41.13;;;;;;;-1.50;100.00;102255.25;4812462;29;20945;-76
2023/01/26 00:03:54;;;;;;;166.13;39.80;;;;;;;-1.49;100.00;102257.06;4810869;29;20038;-76
2023/01/26 00:06:21;;;;;;;165.13;40.75;;;;;;;-1.51;100.00;102253.47;4794650;29;20069;-77
2023/01/26 00:08:52;;;;;;;158.82;39.38;;;;;;;-1.58;100.00;102241.00;4805896;29;20083;-76
2023/01/26 00:11:25;;;;;;;171.65;39.03;;;;;;;-1.45;100.00;102240.00;4810661;29;20042;-76
2023/01/26 00:13:51;;;;;;;167.10;38.53;;;;;;;-1.48;100.00;102238.25;4797177;29;20034;-77
2023/01/26 00:16:18;;;;;;;138.15;38.08;;;;;;;-1.46;100.00;102232.84;4811210;29;20053;-77
2023/01/26 00:18:43;;;;;;;157.88;39.72;;;;;;;-1.44;100.00;102238.22;4819632;29;20045;-76
2023/01/26 00:21:14;;;;;;;147.23;38.45;;;;;;;-1.40;100.00;102231.94;4810027;29;20042;-76
2023/01/26 00:23:40;;;;;;;139.80;35.42;;;;;;;-1.55;100.00;102231.13;4809604;29;20034;-76
2023/01/26 00:26:08;;;;;;;161.25;39.22;;;;;;;-1.39;100.00;102222.97;4798397;29;20046;-76
2023/01/26 00:28:33;;;;;;;141.85;40.08;;;;;;;-1.43;100.00;102219.41;4808952;29;20034;-76
2023/01/26 00:31:07;;;;;;;156.55;38.30;;;;;;;-1.47;100.00;102198.84;4802880;29;20054;-77
2023/01/26 00:33:32;;;;;;;140.25;37.28;;;;;;;-1.52;100.00;102206.94;4805732;29;20043;-76
2023/01/26 00:35:59;;;;;;;159.93;38.78;;;;;;;-1.36;100.00;102214.88;4805534;29;20120;-77
2023/01/26 00:38:24;;;;;;;149.20;39.55;;;;;;;-1.45;100.00;102201.53;4814206;29;20042;-76
2023/01/26 00:40:50;;;;;;;151.55;40.10;;;;;;;-1.48;100.00;102202.44;4796984;29;20198;-77
2023/01/26 00:43:15;;;;;;;154.73;40.63;;;;;;;-1.56;100.00;102190.84;4808611;29;20042;-75
2023/01/26 00:45:41;;;;;;;157.98;41.95;;;;;;;-1.36;100.00;102209.50;4807483;29;20117;-77
2023/01/26 00:48:07;;;;;;;158.07;38.78;;;;;;;-1.36;100.00;102196.06;4793588;29;20431;-77
2023/01/26 00:50:32;;;;;;;157.30;38.47;;;;;;;-1.50;100.00;102185.44;4797759;29;20173;-76
2023/01/26 00:52:58;;;;;;;154.02;37.08;;;;;;;-1.40;100.00;102191.63;4796967;29;20030;-76
2023/01/26 00:55:30;;;;;;;149.80;37.63;;;;;;;-1.40;100.00;102195.19;4819957;29;20064;-76
2023/01/26 00:57:57;;;;;;;155.98;42.08;;;;;;;-1.34;100.00;102186.22;4811266;29;20035;-77
2023/01/26 01:00:23;;;;;;;149.38;40.42;;;;;;;-1.51;100.00;102160.38;4811129;29;20051;-77
2023/01/26 01:02:48;;;;;;;143.10;38.13;;;;;;;-1.32;100.00;102184.41;4809530;29;20039;-77
2023/01/26 01:05:14;;;;;;;156.15;40.75;;;;;;;-1.33;100.00;102180.84;4811830;29;20129;-77
2023/01/26 01:07:39;;;;;;;143.07;37.10;;;;;;;-1.33;100.00;102172.78;4794972;29;20061;-77
2023/01/26 01:10:05;;;;;;;136.48;38.97;;;;;;;-1.36;100.00;102172.78;4793368;29;20047;-76
2023/01/26 01:12:30;;;;;;;148.25;41.88;;;;;;;-1.26;100.00;102170.00;4802174;29;20042;-76
2023/01/26 01:14:56;;;;;;;151.02;41.70;;;;;;;-1.24;100.00;102162.84;4794905;29;20088;-76
2023/01/26 01:17:21;;;;;;;155.05;40.50;;;;;;;-1.22;100.00;102163.72;4787273;29;20483;-76
2023/01/26 01:19:47;;;;;;;154.20;40.30;;;;;;;-1.22;100.00;102169.09;4820860;29;20047;-76
2023/01/26 01:22:12;;;;;;;160.50;39.65;;;;;;;-1.23;100.00;102173.59;4808172;29;20103;-77
2023/01/26 01:24:37;;;;;;;153.85;39.72;;;;;;;-1.18;100.00;102176.22;4792699;29;20458;-77
2023/01/26 01:27:03;;;;;;;144.23;36.60;;;;;;;-1.25;100.00;102159.25;4805565;29;20035;-76
2023/01/26 01:29:28;;;;;;;142.07;38.97;;;;;;;-1.28;100.00;102161.09;4816240;29;20038;-77
2023/01/26 01:31:54;;;;;;;116.68;32.30;;;;;;;-1.27;100.00;102171.81;4808670;29;20134;-77
2023/01/26 01:34:19;;;;;;;131.30;37.88;;;;;;;-1.32;100.00;102158.41;4815395;29;20046;-77
2023/01/26 01:36:45;;;;;;;155.82;37.50;;;;;;;-1.22;100.00;102169.97;4809962;29;20038;-77
2023/01/26 01:39:10;;;;;;;141.18;38.72;;;;;;;-1.24;100.00;102168.22;4797682;29;20356;-76
2023/01/26 01:41:36;;;;;;;142.07;39.25;;;;;;;-1.20;100.00;102162.78;4814276;29;20042;-76
2023/01/26 01:44:22;;;;;;;149.52;38.30;;;;;;;-1.10;100.00;102158.22;4811694;29;20070;-76
2023/01/26 01:46:55;;;;;;;143.85;36.78;;;;;;;-1.11;100.00;102157.34;4813293;29;20042;-76
2023/01/26 01:49:29;;;;;;;145.52;38.10;;;;;;;-1.21;100.00;102146.72;4814273;29;20030;-76
2023/01/26 01:52:05;;;;;;;152.60;38.42;;;;;;;-1.21;100.00;102152.09;4789271;29;20038;-76
2023/01/26 01:54:55;;;;;;;145.13;37.85;;;;;;;-1.21;100.00;102157.47;4796411;29;20118;-75
2023/01/26 01:57:28;;;;;;;126.13;34.25;;;;;;;-1.31;100.00;102149.47;4821038;29;20042;-76
2023/01/26 02:00:00;;;;;;;141.52;37.38;;;;;;;-1.36;100.00;102140.56;4809258;29;20453;-76
2023/01/26 02:02:26;;;;;;;125.93;36.35;;;;;;;-1.31;100.00;102152.16;4813640;29;20034;-77
2023/01/26 02:04:55;;;;;;;153.43;38.30;;;;;;;-1.24;100.00;102144.94;4808897;29;20053;-77
2023/01/26 02:07:21;;;;;;;146.30;38.00;;;;;;;-1.20;100.00;102145.78;4798850;29;20044;-78
2023/01/26 02:12:32;;;;;;;152.23;39.53;;;;;;;-1.19;100.00;102148.47;4798016;29;20215;-77
2023/01/26 02:15:00;;;;;;;144.38;37.85;;;;;;;-1.11;100.00;102134.97;4800453;29;20448;-77
2023/01/26 02:17:25;;;;;;;156.05;36.83;;;;;;;-1.15;100.00;102134.09;4811840;29;20043;-76
2023/01/26 02:20:09;;;;;;;145.23;37.90;;;;;;;-1.08;100.00;102145.69;4779184;29;20106;-76
2023/01/26 02:22:44;;;;;;;157.35;37.47;;;;;;;-1.04;100.00;102152.78;4805950;29;20526;-76
2023/01/26 02:25:39;;;;;;;151.98;39.78;;;;;;;-0.93;100.00;102145.50;4816914;29;20033;-76
2023/01/26 02:28:04;;;;;;;143.02;38.65;;;;;;;-1.06;100.00;102140.28;4822075;29;20122;-76
2023/01/26 02:30:31;;;;;;;134.27;37.85;;;;;;;-1.22;100.00;102137.75;4794569;29;20130;-76
2023/01/26 02:32:56;;;;;;;137.65;38.67;;;;;;;-1.22;100.00;102147.59;4810115;29;20113;-76
2023/01/26 02:35:22;;;;;;;129.57;37.33;;;;;;;-1.30;100.00;102148.56;4789504;29;20157;-76
2023/01/26 02:37:47;;;;;;;134.93;38.05;;;;;;;-1.15;100.00;102143.94;4793043;29;20054;-76
2023/01/26 02:40:24;;;;;;;139.55;36.33;;;;;;;-1.15;100.00;102141.25;4816989;29;20042;-76
2023/01/26 02:42:53;;;;;;;148.48;39.70;;;;;;;-1.17;100.00;102141.25;4799948;29;20035;-76
2023/01/26 02:45:20;;;;;;;154.77;40.65;;;;;;;-1.11;100.00;102140.34;4806581;29;20073;-76
2023/01/26 02:47:46;;;;;;;155.73;40.50;;;;;;;-1.10;100.00;102131.34;4814445;29;20548;-76
2023/01/26 02:50:11;;;;;;;157.95;40.22;;;;;;;-1.07;100.00;102131.31;4821227;29;20121;-76
2023/01/26 02:52:37;;;;;;;149.75;36.97;;;;;;;-1.20;100.00;102130.53;4819977;29;20042;-76
2023/01/26 02:55:21;;;;;;;146.90;39.42;;;;;;;-1.17;100.00;102132.31;4812473;29;20046;-76
2023/01/26 02:57:49;;;;;;;126.72;35.45;;;;;;;-1.15;100.00;102126.03;4810959;29;20034;-76
2023/01/26 03:00:19;;;;;;;142.20;35.92;;;;;;;-1.24;100.00;102122.56;4816993;29;20118;-76
2023/01/26 03:02:47;;;;;;;144.00;36.95;;;;;;;-1.17;100.00;102121.56;4816050;29;20035;-76
2023/01/26 03:05:13;;;;;;;143.82;38.75;;;;;;;-1.10;100.00;102117.91;4784244;29;20046;-77
2023/01/26 03:07:38;;;;;;;138.55;38.10;;;;;;;-1.11;100.00;102116.16;4795100;29;20034;-77
2023/01/26 03:10:04;;;;;;;152.88;36.97;;;;;;;-1.12;100.00;102117.03;4789360;29;20551;-76
2023/01/26 03:12:30;;;;;;;134.33;36.30;;;;;;;-0.97;100.00;102121.38;4816101;29;20047;-75
2023/01/26 03:17:40;;;;;;;137.57;35.55;;;;;;;-1.08;100.00;102112.53;4806911;29;20034;-76
2023/01/26 03:28:22;;;;;;;147.13;37.08;;;;;;;-0.96;100.00;102109.72;4810148;29;20046;-75
2023/01/26 03:30:49;;;;;;;142.90;38.05;;;;;;;-0.99;100.00;102107.06;4811076;29;20515;-75
2023/01/26 03:33:16;;;;;;;145.90;36.85;;;;;;;-1.09;100.00;102105.38;4810873;29;20125;-75
2023/01/26 03:35:41;;;;;;;130.85;36.30;;;;;;;-1.13;100.00;102113.47;4816294;29;20038;-76
2023/01/26 03:38:06;;;;;;;137.25;34.67;;;;;;;-1.08;100.00;102109.84;4795996;29;20406;-77
2023/01/26 03:56:58;;;;;;;132.63;33.13;;;;;;;-0.97;100.00;102094.47;4809560;29;20043;-77
2023/01/26 03:59:36;;;;;;;134.38;35.75;;;;;;;-0.87;100.00;102096.19;4815875;29;20505;-77
2023/01/26 04:10:17;;;;;;;127.32;32.35;;;;;;;-0.90;100.00;102098.00;4815221;29;20046;-77
2023/01/26 04:12:43;;;;;;;138.32;32.25;;;;;;;-0.77;100.00;102096.94;4805657;29;20046;-77
2023/01/26 04:23:20;;;;;;;125.20;30.85;;;;;;;-0.64;100.00;102101.28;4805657;29;20130;-77
2023/01/26 04:25:46;;;;;;;124.22;30.60;;;;;;;-0.70;100.00;102109.41;4795123;29;20117;-76
2023/01/26 04:28:12;;;;;;;123.45;30.08;;;;;;;-0.60;100.00;102105.69;4798148;29;20046;-76
2023/01/26 04:30:38;;;;;;;109.78;30.58;;;;;;;-0.70;100.00;102097.78;4807579;29;20063;-77
2023/01/26 04:33:03;;;;;;;120.25;30.35;;;;;;;-0.66;100.00;102097.69;4803398;29;20042;-77
2023/01/26 04:35:29;;;;;;;120.93;30.52;;;;;;;-0.55;100.00;102094.88;4812894;29;20043;-77
2023/01/26 04:37:55;;;;;;;122.03;30.35;;;;;;;-0.56;100.00;102101.16;4812406;29;20551;-77
2023/01/26 04:40:20;;;;;;;116.63;30.08;;;;;;;-0.54;100.00;102103.84;4798459;29;20104;-77
2023/01/26 04:42:46;;;;;;;93.28;27.77;;;;;;;-0.58;100.00;102113.75;4804562;29;20175;-77
2023/01/26 04:45:11;;;;;;;113.22;29.95;;;;;;;-0.63;100.00;102105.72;4803704;29;20125;-77
2023/01/26 04:47:37;;;;;;;118.45;30.58;;;;;;;-0.70;100.00;102100.47;4780981;29;20502;-77
2023/01/26 04:50:02;;;;;;;107.22;28.30;;;;;;;-0.64;100.00;102103.06;4789941;29;20603;-78
2023/01/26 04:52:28;;;;;;;103.15;29.80;;;;;;;-0.62;100.00;102085.13;4803543;29;20050;-77
2023/01/26 04:54:53;;;;;;;96.18;28.10;;;;;;;-0.47;100.00;102092.09;4801972;29;20035;-78
2023/01/26 04:57:19;;;;;;;92.93;28.27;;;;;;;-0.50;100.00;102078.69;4786793;29;20038;-77
2023/01/26 04:59:45;;;;;;;88.50;26.25;;;;;;;-0.61;100.00;102079.72;4779508;29;20074;-77
2023/01/26 05:02:10;;;;;;;80.65;25.70;;;;;;;-0.51;100.00;102093.91;4809561;29;20123;-78
2023/01/26 05:04:36;;;;;;;94.05;27.88;;;;;;;-0.55;100.00;102097.56;4794710;29;20460;-77
2023/01/26 05:07:02;;;;;;;88.45;25.05;;;;;;;-0.44;100.00;102086.69;4791234;29;20042;-77
2023/01/26 05:09:27;;;;;;;97.78;27.52;;;;;;;-0.38;100.00;102086.59;4783978;29;20043;-78
2023/01/26 05:11:52;;;;;;;96.13;26.35;;;;;;;-0.43;100.00;102080.38;4781917;29;20038;-77
2023/01/26 05:14:18;;;;;;;94.78;25.58;;;;;;;-0.33;100.00;102083.84;4808564;29;20418;-78
2023/01/26 05:16:43;;;;;;;92.10;27.15;;;;;;;-0.36;100.00;102090.16;4776941;29;20479;-76
2023/01/26 05:19:09;;;;;;;87.88;25.65;;;;;;;-0.41;100.00;102078.56;4809037;29;20169;-78
2023/01/26 05:21:34;;;;;;;86.82;24.73;;;;;;;-0.49;100.00;102078.69;4803946;29;20038;-77
2023/01/26 05:24:00;;;;;;;81.07;23.70;;;;;;;-0.46;100.00;102075.94;4806367;29;20041;-78
2023/01/26 05:26:25;;;;;;;95.60;25.83;;;;;;;-0.41;100.00;102079.47;4782082;29;20070;-77
2023/01/26 05:28:51;;;;;;;89.57;25.05;;;;;;;-0.46;100.00;102059.81;4796392;29;20102;-79
2023/01/26 05:31:16;;;;;;;87.22;26.90;;;;;;;-0.37;100.00;102083.88;4802552;29;20503;-75
2023/01/26 05:33:42;;;;;;;84.78;24.67;;;;;;;-0.28;100.00;102080.19;4806473;29;20125;-76
2023/01/26 05:36:07;;;;;;;83.15;23.50;;;;;;;-0.27;100.00;102081.94;4804239;29;20427;-77
2023/01/26 05:38:33;;;;;;;84.90;24.45;;;;;;;-0.26;100.00;102082.84;4809120;29;20074;-76
2023/01/26 05:40:59;;;;;;;83.30;24.48;;;;;;;-0.22;100.00;102085.47;4804768;29;20129;-76
2023/01/26 05:43:24;;;;;;;93.28;25.70;;;;;;;-0.26;100.00;102089.13;4791480;29;20035;-76
2023/01/26 05:45:50;;;;;;;80.65;24.13;;;;;;;-0.41;100.00;102083.94;4792448;29;20108;-76
2023/01/26 05:48:16;;;;;;;81.15;25.20;;;;;;;-0.35;100.00;102094.63;4793778;29;20506;-76
2023/01/26 05:50:41;;;;;;;80.88;23.88;;;;;;;-0.26;100.00;102090.94;4815211;29;20042;-75
2023/01/26 05:53:07;;;;;;;80.18;24.05;;;;;;;-0.24;100.00;102091.78;4814919;29;20039;-75
2023/01/26 05:55:32;;;;;;;78.47;24.67;;;;;;;-0.26;100.00;102089.13;4804005;29;20046;-75
2023/01/26 05:57:57;;;;;;;71.95;21.27;;;;;;;-0.30;100.00;102083.78;4807723;29;20042;-78
2023/01/26 06:00:23;;;;;;;75.65;23.00;;;;;;;-0.20;100.00;102093.50;4790657;29;20053;-77
2023/01/26 06:02:49;;;;;;;72.25;22.48;;;;;;;-0.31;100.00;102087.38;4785661;29;20038;-77
2023/01/26 06:05:14;;;;;;;81.18;22.10;;;;;;;-0.21;100.00;102087.25;4824560;29;20503;-76
2023/01/26 06:07:40;;;;;;;69.18;22.25;;;;;;;-0.17;100.00;102092.59;4768871;29;20049;-77
2023/01/26 06:10:06;;;;;;;70.10;21.85;;;;;;;-0.16;100.00;102099.72;4809544;29;20050;-76
2023/01/26 06:12:34;;;;;;;66.82;22.40;;;;;;;-0.28;100.00;102095.41;4789854;29;20543;-76
2023/01/26 06:15:01;;;;;;;52.00;19.95;;;;;;;-0.35;100.00;102091.94;4802588;29;20054;-77
2023/01/26 06:17:27;;;;;;;65.22;21.88;;;;;;;-0.25;100.00;102096.25;4794953;29;20171;-77
2023/01/26 06:19:52;;;;;;;60.25;20.45;;;;;;;-0.25;100.00;102104.34;4792932;29;20126;-77
2023/01/26 06:22:18;;;;;;;75.22;22.65;;;;;;;-0.28;100.00;102096.34;4807669;29;20054;-77
2023/01/26 06:24:43;;;;;;;55.53;20.73;;;;;;;-0.35;100.00;102104.50;4782766;29;20073;-77
2023/01/26 06:27:14;;;;;;;65.32;20.65;;;;;;;-0.34;100.00;102104.47;4807040;29;20494;-76
2023/01/26 06:29:41;;;;;;;66.85;19.98;;;;;;;-0.31;100.00;102093.69;4802168;29;20039;-77
2023/01/26 06:32:08;;;;;;;70.20;22.25;;;;;;;-0.42;100.00;102101.88;4779758;29;20133;-77
2023/01/26 06:34:34;;;;;;;64.30;20.80;;;;;;;-0.38;100.00;102100.03;4794732;29;20399;-77
2023/01/26 06:36:59;;;;;;;70.32;21.48;;;;;;;-0.21;100.00;102106.09;4779233;29;20050;-77
2023/01/26 06:39:24;;;;;;;64.85;19.10;;;;;;;-0.18;100.00;102105.16;4767804;29;20035;-77
2023/01/26 06:41:50;;;;;;;57.67;19.90;;;;;;;-0.12;100.00;102109.56;4800551;29;20456;-77
2023/01/26 06:44:15;;;;;;;64.53;19.48;;;;;;;-0.10;100.00;102102.34;4796677;29;22155;-77
2023/01/26 06:46:41;;;;;;;57.38;18.58;;;;;;;-0.05;100.00;102108.53;4818957;29;20066;-77
2023/01/26 06:49:06;;;;;;;55.22;18.73;;;;;;;-0.07;100.00;102111.25;4815413;29;20108;-77
2023/01/26 06:51:42;;;;;;;51.13;18.42;;;;;;;-0.02;100.00;102105.81;4809541;29;20047;-77
2023/01/26 06:54:12;;;;;;;61.33;19.20;;;;;;;0.01;100.00;102113.84;4790856;29;20066;-78
2023/01/26 06:56:38;;;;;;;56.40;19.33;;;;;;;-0.15;100.00;102107.78;4820890;29;20039;-77
2023/01/26 06:59:04;;;;;;;53.00;18.63;;;;;;;-0.01;100.00;102108.47;4779034;29;20149;-77
2023/01/26 07:01:35;;;;;;;53.80;17.30;;;;;;;-0.14;100.00;102104.19;4786662;29;20412;-77
2023/01/26 07:04:01;;;;;;;52.97;17.40;;;;;;;0.01;100.00;102119.22;4811567;29;20038;-77
2023/01/26 07:06:26;;;;;;;53.25;18.20;;;;;;;0.02;100.00;102121.03;4798989;29;20396;-77
2023/01/26 07:08:52;;;;;;;50.35;17.08;;;;;;;0.03;100.00;102105.75;4784536;29;20129;-77
2023/01/26 07:11:18;;;;;;;53.20;18.73;;;;;;;0.01;100.00;102116.53;4809259;29;20039;-76
2023/01/26 07:13:44;;;;;;;53.78;18.77;;;;;;;0.03;100.00;102108.44;4807298;29;20054;-77
2023/01/26 07:16:11;;;;;;;49.85;17.92;;;;;;;0.07;100.00;102116.44;4797498;29;20407;-77
2023/01/26 07:18:37;;;;;;;54.28;18.08;;;;;;;0.06;100.00;102106.59;4812971;29;20027;-77
2023/01/26 07:21:04;;;;;;;56.88;18.02;;;;;;;-0.02;100.00;102113.88;4792716;29;20115;-77
2023/01/26 07:23:30;;;;;;;58.40;19.58;;;;;;;0.01;100.00;102110.28;4816960;29;20527;-76
2023/01/26 07:25:56;;;;;;;56.60;18.35;;;;;;;-0.11;100.00;102112.22;4800839;29;20114;-77
2023/01/26 07:28:22;;;;;;;56.22;18.02;;;;;;;0.01;100.00;102110.28;4818216;29;20098;-76
2023/01/26 07:30:48;;;;;;;49.38;16.58;;;;;;;-0.04;100.00;102115.72;4780003;29;20051;-77
2023/01/26 07:33:14;;;;;;;64.13;20.50;;;;;;;-0.01;100.00;102121.94;4805979;29;20491;-77
2023/01/26 07:35:39;;;;;;;52.92;17.40;;;;;;;0.04;100.00;102116.50;4808651;29;20043;-75
2023/01/26 07:38:06;;;;;;;50.92;17.05;;;;;;;-0.03;100.00;102123.78;4809394;29;20049;-76
2023/01/26 07:40:33;;;;;;;54.17;19.20;;;;;;;0.03;100.00;102128.16;4807292;29;20042;-76
2023/01/26 07:42:59;;;;;;;56.38;18.60;;;;;;;0.06;100.00;102135.31;4789896;29;20594;-75
2023/01/26 07:45:27;;;;;;;55.88;18.85;;;;;;;0.06;100.00;102128.13;4806325;29;20043;-76
2023/01/26 07:47:54;;;;;;;51.42;17.58;;;;;;;0.16;100.00;102136.97;4791115;29;20531;-77
2023/01/26 07:50:20;;;;;;;55.45;17.58;;;;;;;0.05;100.00;102142.53;4800795;29;20066;-77
2023/01/26 07:52:46;;;;;;;56.10;17.20;;;;;;;0.06;100.00;102138.91;4802933;29;20046;-76
2023/01/26 07:55:12;;;;;;;56.67;17.15;;;;;;;0.08;100.00;102147.88;4824951;29;20038;-77
2023/01/26 07:57:37;;;;;;;54.17;18.70;;;;;;;0.08;100.00;102147.88;4825070;29;20039;-77
2023/01/26 08:00:03;;;;;;;56.03;15.73;;;;;;;0.09;100.00;102143.34;4802902;29;20042;-76
2023/01/26 08:02:28;;;;;;;51.78;17.48;;;;;;;0.09;100.00;102148.75;4798183;29;20522;-76
2023/01/26 08:04:54;;;;;;;58.55;16.92;;;;;;;0.09;100.00;102148.75;4808476;29;20042;-77
2023/01/26 08:07:19;;;;;;;49.13;16.10;;;;;;;0.01;100.00;102151.53;4811390;29;20104;-76
2023/01/26 08:09:45;;;;;;;57.83;16.92;;;;;;;-0.01;100.00;102148.88;4811546;29;20478;-77
2023/01/26 08:12:10;;;;;;;51.95;15.73;;;;;;;0.04;100.00;102140.72;4806124;29;20053;-76
2023/01/26 08:14:35;;;;;;;56.92;17.10;;;;;;;-0.01;100.00;102147.97;4789845;29;20056;-76
2023/01/26 08:17:01;;;;;;;51.58;16.83;;;;;;;0.04;100.00;102148.81;4805666;29;20075;-76
2023/01/26 08:19:26;;;;;;;59.88;17.17;;;;;;;0.08;100.00;102139.78;4805487;29;20062;-76
2023/01/26 08:21:53;;;;;;;55.83;17.23;;;;;;;0.06;100.00;102143.41;4806391;29;20078;-77
2023/01/26 08:24:19;;;;;;;51.53;16.90;;;;;;;0.09;100.00;102148.75;4806454;29;20034;-77
2023/01/26 08:26:44;;;;;;;58.63;17.40;;;;;;;-0.04;100.00;102151.59;4804699;29;20049;-77
2023/01/26 08:29:09;;;;;;;53.33;16.63;;;;;;;0.00;100.00;102149.78;4789962;29;20065;-77
2023/01/26 08:31:36;;;;;;;50.28;16.30;;;;;;;0.10;100.00;102147.81;4807093;29;20107;-77
2023/01/26 08:34:01;;;;;;;50.83;16.00;;;;;;;0.13;100.00;102148.69;4791810;29;20050;-76
2023/01/26 08:36:27;;;;;;;51.90;15.65;;;;;;;0.07;100.00;102139.81;4791973;29;20099;-77
2023/01/26 08:38:54;;;;;;;53.47;16.45;;;;;;;0.18;100.00;102154.88;4824302;29;20073;-77
2023/01/26 08:41:19;;;;;;;54.28;15.95;;;;;;;0.09;100.00;102148.75;4783340;29;20514;-77
2023/01/26 08:43:45;;;;;;;57.08;17.25;;;;;;;0.12;100.00;102154.97;4806061;29;20027;-76
2023/01/26 08:46:11;;;;;;;49.25;15.65;;;;;;;0.13;100.00;102163.94;4805105;29;20034;-77
2023/01/26 08:48:37;;;;;;;48.15;15.38;;;;;;;0.15;100.00;102154.03;4807687;29;20043;-77
2023/01/26 08:51:04;;;;;;;50.13;15.90;;;;;;;0.30;100.00;102161.00;4807653;29;20026;-77
2023/01/26 08:53:31;;;;;;;48.30;15.57;;;;;;;0.18;100.00;102168.34;4824066;29;20038;-77
2023/01/26 08:55:59;;;;;;;39.97;14.65;;;;;;;0.12;100.00;102163.03;4798426;29;20084;-76
2023/01/26 08:58:24;;;;;;;46.13;14.70;;;;;;;0.13;100.00;102169.31;4777858;29;20046;-76
2023/01/26 09:00:50;;;;;;;50.30;14.95;;;;;;;0.16;100.00;102171.97;4807656;29;20069;-77
2023/01/26 09:03:15;;;;;;;58.00;15.75;;;;;;;0.26;100.00;102159.25;4804769;29;20075;-77
2023/01/26 09:05:41;;;;;;;56.55;16.05;;;;;;;0.23;100.00;102170.06;4778731;29;20099;-76
2023/01/26 09:08:08;;;;;;;48.90;14.95;;;;;;;0.17;100.00;102168.38;4774626;29;20043;-77
2023/01/26 09:10:35;;;;;;;52.90;16.20;;;;;;;0.16;100.00;102177.34;4805766;29;20077;-76
2023/01/26 09:13:01;;;;;;;52.10;15.80;;;;;;;0.21;100.00;102171.91;4808932;29;20046;-76
2023/01/26 09:15:26;;;;;;;49.63;14.63;;;;;;;0.26;100.00;102172.72;4792935;29;20078;-76
2023/01/26 09:17:52;;;;;;;54.35;15.98;;;;;;;0.31;100.00;102173.53;4792639;29;20453;-76
2023/01/26 09:20:18;;;;;;;54.45;16.27;;;;;;;0.11;100.00;102179.22;4807646;29;20054;-76
2023/01/26 09:22:44;;;;;;;54.45;14.90;;;;;;;0.13;100.00;102178.31;4826873;29;20054;-76
2023/01/26 09:25:10;;;;;;;67.03;18.50;;;;;;;0.15;100.00;102187.25;4810271;29;20030;-77
2023/01/26 09:27:36;;;;;;;66.65;16.63;;;;;;;0.29;100.00;102180.75;4827152;29;20042;-76
2023/01/26 09:30:03;;;;;;;54.78;15.30;;;;;;;0.30;100.00;102185.25;4791881;29;20515;-76
2023/01/26 09:32:28;;;;;;;63.95;17.73;;;;;;;0.39;100.00;102168.03;4777789;29;20039;-77
2023/01/26 09:34:54;;;;;;;63.22;16.88;;;;;;;0.44;100.00;102174.25;4808793;29;20042;-76
2023/01/26 09:37:20;;;;;;;62.50;18.55;;;;;;;0.49;100.00;102172.38;4808698;29;20122;-76
2023/01/26 09:39:45;;;;;;;62.83;17.30;;;;;;;0.50;100.00;102172.34;4809458;29;20059;-77
2023/01/26 09:42:41;;;;;;;69.90;17.40;;;;;;;0.49;100.00;102175.97;4808550;29;20491;-76
2023/01/26 09:45:25;;;;;;;58.15;18.15;;;;;;;0.44;100.00;102185.03;4800500;29;20415;-76
2023/01/26 09:48:27;;;;;;;73.78;19.52;;;;;;;0.47;100.00;102177.78;4808201;29;20050;-76
2023/01/26 09:51:07;;;;;;;79.35;19.77;;;;;;;0.49;100.00;102169.66;4795727;29;20046;-76
2023/01/26 09:53:43;;;;;;;80.00;20.70;;;;;;;0.58;100.00;102172.22;4798369;29;20038;-76
2023/01/26 09:56:18;;;;;;;76.72;21.10;;;;;;;0.60;100.00;102167.69;4792668;29;20560;-76
2023/01/26 09:58:48;;;;;;;82.88;20.85;;;;;;;0.66;100.00;102169.41;4808142;29;20049;-76
2023/01/26 10:01:23;;;;;;;80.60;18.17;;;;;;;0.65;100.00;102173.00;4792169;29;20039;-76
2023/01/26 10:04:20;;;;;;;80.47;18.58;;;;;;;0.57;100.00;102178.53;4808764;29;20031;-76
2023/01/26 10:06:46;;;;;;;70.32;17.40;;;;;;;0.53;100.00;102166.03;4779456;29;20599;-76
2023/01/26 10:09:17;;;;;;;78.22;17.35;;;;;;;0.51;100.00;102163.34;4794563;29;20129;-76
2023/01/26 10:11:47;;;;;;;80.70;18.02;;;;;;;0.54;100.00;102179.47;4826432;29;20031;-76
2023/01/26 10:14:41;;;;;;;93.13;20.77;;;;;;;0.66;100.00;102173.00;4813560;29;20061;-76
2023/01/26 10:17:18;;;;;;;79.32;18.45;;;;;;;0.69;100.00;102166.69;4807898;29;20049;-76
2023/01/26 10:19:49;;;;;;;80.35;17.17;;;;;;;0.63;100.00;102167.66;4792190;29;20039;-76
2023/01/26 10:22:47;;;;;;;80.50;17.45;;;;;;;0.49;100.00;102159.81;4808297;29;20030;-76
2023/01/26 10:25:18;;;;;;;101.05;20.05;;;;;;;0.70;100.00;102163.03;4806690;29;20035;-76
2023/01/26 10:27:45;;;;;;;95.95;19.65;;;;;;;0.69;100.00;102172.06;4807077;29;20053;-76
2023/01/26 10:30:15;;;;;;;100.03;19.70;;;;;;;0.65;100.00;102170.31;4776711;29;20146;-76
2023/01/26 10:32:42;;;;;;;83.57;18.33;;;;;;;0.80;100.00;102167.34;4793746;29;20077;-76
2023/01/26 10:35:16;;;;;;;109.82;20.52;;;;;;;0.79;100.00;102159.28;4826472;29;20096;-76
2023/01/26 10:37:41;;;;;;;108.20;19.58;;;;;;;0.66;100.00;102161.34;4817215;29;20042;-76
2023/01/26 10:40:08;;;;;;;120.18;21.30;;;;;;;0.82;100.00;102167.31;4807370;29;20518;-76
2023/01/26 10:42:35;;;;;;;115.45;20.15;;;;;;;0.83;100.00;102166.44;4808485;29;20046;-76
2023/01/26 10:45:04;;;;;;;114.05;19.58;;;;;;;0.84;100.00;102161.00;4777058;29;20462;-76
2023/01/26 10:47:29;;;;;;;108.60;19.83;;;;;;;0.78;100.00;102168.31;4792464;29;20491;-76
2023/01/26 10:50:21;;;;;;;124.03;19.80;;;;;;;0.96;100.00;102167.97;4808964;29;20145;-76
2023/01/26 10:52:58;;;;;;;110.78;19.85;;;;;;;0.90;100.00;102157.31;4807405;29;20471;-76
2023/01/26 10:55:23;;;;;;;147.55;22.00;;;;;;;1.02;100.00;102173.28;4792422;29;20495;-76
2023/01/26 10:57:49;;;;;;;109.38;19.75;;;;;;;0.96;100.00;102164.41;4791744;29;20134;-76
2023/01/26 11:00:18;;;;;;;115.07;22.02;;;;;;;1.10;100.00;102173.16;4778684;29;20050;-76
2023/01/26 11:02:53;;;;;;;116.82;20.20;;;;;;;1.23;100.00;102176.47;4811763;29;20075;-76
2023/01/26 11:05:24;;;;;;;127.45;20.67;;;;;;;1.16;100.00;102177.53;4808135;29;20467;-76
2023/01/26 11:07:59;;;;;;;129.05;20.98;;;;;;;1.15;100.00;102168.56;4807884;29;20045;-77
2023/01/26 11:10:36;;;;;;;124.43;20.80;;;;;;;1.23;100.00;102165.69;4792101;29;20039;-77
2023/01/26 11:13:28;;;;;;;119.88;21.65;;;;;;;1.29;100.00;102166.47;4795011;29;20043;-77
2023/01/26 11:16:13;;;;;;;99.35;20.17;;;;;;;1.23;100.00;102161.19;4805324;29;20047;-77
2023/01/26 11:19:04;;;;;;;139.70;23.52;;;;;;;1.29;100.00;102152.97;4807801;29;20403;-76
2023/01/26 11:21:52;;;;;;;156.50;22.63;;;;;;;1.26;100.00;102150.34;4800516;29;20137;-76
2023/01/26 11:24:56;;;;;;;143.77;24.35;;;;;;;1.36;100.00;102147.47;4791378;29;20049;-76
2023/01/26 11:27:33;;;;;;;138.65;21.52;;;;;;;1.31;100.00;102147.53;4773111;29;20047;-77
2023/01/26 11:30:05;;;;;;;142.43;22.50;;;;;;;1.39;100.00;102150.09;4806264;29;20051;-76
2023/01/26 11:32:45;;;;;;;167.23;24.77;;;;;;;1.41;100.00;102143.78;4807251;29;20404;-76
2023/01/26 11:35:26;;;;;;;161.05;23.73;;;;;;;1.47;100.00;102145.44;4806936;29;20053;-76
2023/01/26 11:38:13;;;;;;;180.13;26.48;;;;;;;1.55;100.00;102148.88;4792029;29;20483;-77
2023/01/26 11:40:47;;;;;;;213.38;25.02;;;;;;;1.56;100.00;102145.25;4808348;29;20038;-76
2023/01/26 11:43:41;;;;;;;214.73;25.02;;;;;;;1.75;100.00;102142.16;4794307;29;20037;-77
2023/01/26 11:46:48;;;;;;;146.80;23.25;;;;;;;1.73;100.00;102141.31;4806303;29;20133;-76
2023/01/26 11:49:19;;;;;;;157.45;25.00;;;;;;;1.75;100.00;102145.75;4806612;29;20091;-77
2023/01/26 11:52:25;;;;;;;146.52;19.88;;;;;;;1.74;100.00;102138.59;4820934;29;20042;-77
2023/01/26 11:54:59;;;;;;;187.32;25.77;;;;;;;1.98;100.00;102147.97;4806730;29;20466;-77
2023/01/26 11:57:33;;;;;;;166.88;23.80;;;;;;;1.89;100.00;102144.59;4806620;29;20043;-77